Time;durP1;ratioP1;P1;durP2;ratioP2;P2;SDS_P1;SDS_P2;PMS_P1;PMS_P2;Temp;Humidity;BMP_temperature;BMP_pressure;BME280_temperature;BME280_humidity;BME280_pressure;Samples;Min_cycle;Max_cycle;Signal;HPM_P1;HPM_P2
2023/01/14 00:08:57;;;;;;;3.20;1.00;;;;;;;16.01;64.33;100766.88;20247932;29;20052;-83
2023/01/14 00:18:58;;;;;;;5.00;1.58;;;;;;;16.22;64.35;100811.72;20247019;29;20460;-83
2023/01/14 00:29:00;;;;;;;2.92;1.17;;;;;;;16.21;64.18;100820.75;20229721;29;20048;-83
2023/01/14 00:39:03;;;;;;;3.60;1.00;;;;;;;16.21;64.10;100812.69;20244588;29;20048;-83
2023/01/14 00:49:07;;;;;;;2.42;1.00;;;;;;;16.17;63.92;100813.94;20228932;29;20056;-83
2023/01/14 00:59:17;;;;;;;4.18;1.35;;;;;;;15.97;63.94;100791.41;20226806;29;20049;-84
2023/01/14 01:09:18;;;;;;;2.72;1.15;;;;;;;16.22;64.04;100843.94;20226871;29;20055;-83
2023/01/14 01:19:20;;;;;;;3.35;1.10;;;;;;;16.20;64.24;100846.78;20241827;29;20052;-83
2023/01/14 01:29:21;;;;;;;4.47;1.20;;;;;;;16.21;63.94;100851.16;20241887;29;20052;-84
2023/01/14 01:39:23;;;;;;;3.20;1.00;;;;;;;16.21;64.01;100864.59;20241811;29;20076;-83
2023/01/14 01:49:30;;;;;;;2.70;0.98;;;;;;;16.22;64.04;100854.69;20240096;29;20451;-83
2023/01/14 01:59:37;;;;;;;4.80;1.38;;;;;;;16.22;63.94;100862.75;20239475;29;20060;-83
2023/01/14 02:09:38;;;;;;;3.42;0.77;;;;;;;16.14;63.75;100854.47;20222555;29;20053;-83
2023/01/14 02:20:03;;;;;;;3.72;1.10;;;;;;;16.21;63.87;100869.97;20205413;29;20518;-83
2023/01/14 02:30:43;;;;;;;2.83;1.20;;;;;;;16.22;63.90;100860.06;20205305;29;20049;-84
2023/01/14 02:41:08;;;;;;;6.20;1.70;;;;;;;16.23;63.69;100845.66;20133416;29;20411;-83
2023/01/14 02:51:11;;;;;;;4.07;1.60;;;;;;;16.22;63.70;100834.06;20157648;29;20491;-82
2023/01/14 03:01:41;;;;;;;2.90;1.08;;;;;;;16.22;63.43;100822.44;20141292;29;20049;-83
2023/01/14 03:11:53;;;;;;;2.47;0.90;;;;;;;15.65;63.49;100734.81;20157999;29;20049;-83
2023/01/14 03:21:57;;;;;;;4.43;1.20;;;;;;;16.23;63.38;100818.78;20124880;29;20072;-84
2023/01/14 03:32:15;;;;;;;5.97;1.30;;;;;;;15.95;63.04;100768.22;20184401;29;20044;-83
2023/01/14 03:42:19;;;;;;;3.80;1.08;;;;;;;16.22;63.10;100817.94;20234026;29;20044;-83
2023/01/14 03:52:40;;;;;;;3.50;1.38;;;;;;;16.22;63.10;100798.28;20217667;29;20132;-83
2023/01/14 04:02:45;;;;;;;3.20;1.05;;;;;;;16.23;62.96;100797.28;20216549;29;20051;-83
2023/01/14 04:23:06;;;;;;;4.00;1.33;;;;;;;16.23;62.42;100786.56;20232546;29;20057;-83
2023/01/14 04:33:08;;;;;;;4.03;1.15;;;;;;;16.22;62.60;100791.09;20237607;29;20060;-83
2023/01/14 04:43:09;;;;;;;4.45;1.38;;;;;;;16.23;62.52;100770.44;20245077;29;20052;-83
2023/01/14 04:53:20;;;;;;;4.70;1.30;;;;;;;15.99;62.20;100725.00;20230696;29;20056;-83
2023/01/14 05:03:23;;;;;;;3.05;1.20;;;;;;;16.05;62.42;100722.66;20211654;29;20131;-83
2023/01/14 05:13:24;;;;;;;3.28;1.35;;;;;;;16.22;62.48;100740.06;20240539;29;20591;-83
2023/01/14 05:35:26;;;;;;;4.97;1.40;;;;;;;15.89;62.35;100631.81;20239835;29;20056;-83
2023/01/14 05:55:49;;;;;;;5.00;2.22;;;;;;;16.06;62.22;100625.00;20238456;29;20068;-83
2023/01/14 06:16:10;;;;;;;4.32;1.52;;;;;;;16.16;61.99;100592.00;20199609;29;20052;-83
2023/01/14 06:26:16;;;;;;;5.45;1.75;;;;;;;16.15;61.62;100591.16;20234401;29;20052;-86
2023/01/14 06:36:18;;;;;;;4.68;1.30;;;;;;;16.04;62.82;100530.31;20191489;29;20059;-84
2023/01/14 06:46:20;;;;;;;5.55;1.33;;;;;;;16.37;63.49;100541.78;20200678;29;20045;-84
2023/01/14 06:56:22;;;;;;;5.18;1.48;;;;;;;16.44;63.68;100535.88;20216298;29;20064;-85
2023/01/14 07:06:24;;;;;;;4.18;1.45;;;;;;;16.46;63.83;100504.34;20193707;29;20053;-85
2023/01/14 07:16:26;;;;;;;7.40;1.50;;;;;;;16.48;63.76;100491.63;20201580;29;20056;-83
2023/01/14 07:26:27;;;;;;;4.68;1.30;;;;;;;16.41;64.04;100472.50;20196449;29;20189;-83
2023/01/14 07:36:29;;;;;;;4.07;1.30;;;;;;;16.33;64.41;100430.19;20201081;29;20060;-92
2023/01/14 07:46:31;;;;;;;5.50;1.77;;;;;;;16.49;64.17;100443.09;20208203;29;20057;-81
2023/01/14 07:56:32;;;;;;;6.28;1.65;;;;;;;16.42;63.92;100408.88;20204873;29;20051;-84
2023/01/14 08:06:34;;;;;;;6.03;2.15;;;;;;;16.40;63.96;100395.56;20193780;29;20049;-81
2023/01/14 08:16:35;;;;;;;5.93;1.88;;;;;;;16.37;63.93;100353.72;20197253;29;20044;-82
2023/01/14 08:26:37;;;;;;;4.10;1.40;;;;;;;16.35;63.91;100323.47;20201926;29;20060;-83
2023/01/14 08:36:39;;;;;;;4.68;1.67;;;;;;;16.34;63.79;100304.78;20182363;29;20218;-83
2023/01/14 08:46:41;;;;;;;4.63;1.70;;;;;;;16.33;63.88;100274.38;20211238;29;20507;-83
2023/01/14 08:56:43;;;;;;;3.83;1.52;;;;;;;16.14;63.76;100223.38;20195122;29;20084;-87
2023/01/14 09:17:10;;;;;;;4.32;1.80;;;;;;;16.44;65.15;100182.06;20206932;29;20045;-83
2023/01/14 09:27:12;;;;;;;6.10;1.38;;;;;;;16.51;65.24;100150.09;20175191;29;20085;-84
2023/01/14 09:37:24;;;;;;;3.35;1.45;;;;;;;16.50;65.38;100122.34;20178714;29;20064;-84
2023/01/14 09:47:26;;;;;;;3.53;1.30;;;;;;;16.34;65.28;100053.13;20188493;29;20414;-83
2023/01/14 09:57:45;;;;;;;5.75;1.35;;;;;;;16.63;65.27;100065.59;20198002;29;20059;-82
2023/01/14 10:07:49;;;;;;;3.95;1.33;;;;;;;16.66;65.19;100025.00;20180772;29;20286;-82
2023/01/14 10:17:56;;;;;;;1.95;0.88;;;;;;;16.43;65.23;99943.13;20223002;29;20076;-82
2023/01/14 10:27:59;;;;;;;3.50;1.23;;;;;;;16.70;65.28;99938.69;20217515;29;20048;-81
2023/01/14 10:38:01;;;;;;;2.78;0.98;;;;;;;16.72;65.36;99888.31;20255484;29;20064;-81
2023/01/14 10:48:04;;;;;;;2.88;0.98;;;;;;;16.48;65.40;99814.56;20196450;29;20116;-81
2023/01/14 10:58:13;;;;;;;2.08;0.95;;;;;;;16.66;65.27;99804.63;20227660;29;20052;-82
2023/01/14 11:08:47;;;;;;;2.10;0.70;;;;;;;16.68;65.44;99765.00;20215108;29;20068;-82
2023/01/14 11:18:51;;;;;;;2.72;0.93;;;;;;;16.56;65.51;99679.44;20218449;29;20392;-82
2023/01/14 11:28:53;;;;;;;1.50;0.60;;;;;;;16.75;65.31;99668.47;20222868;29;20419;-82
2023/01/14 11:38:59;;;;;;;1.80;0.90;;;;;;;16.79;65.48;99637.59;20195214;29;20056;-82
2023/01/14 11:49:22;;;;;;;2.92;1.00;;;;;;;16.80;65.32;99573.94;20205953;29;20637;-82
2023/01/14 11:59:33;;;;;;;1.55;0.70;;;;;;;16.80;65.53;99528.25;20222228;29;21181;-82
2023/01/14 12:09:47;;;;;;;2.05;0.80;;;;;;;16.81;65.54;99474.31;20214975;29;20044;-83
2023/01/14 12:20:11;;;;;;;1.10;0.70;;;;;;;16.82;65.49;99448.31;20216144;29;20048;-82
2023/01/14 12:30:15;;;;;;;1.38;0.70;;;;;;;16.82;65.53;99394.53;20247992;29;20059;-82
2023/01/14 12:51:02;;;;;;;1.20;0.65;;;;;;;16.76;65.42;99322.63;20230529;29;20108;-82
2023/01/14 13:01:12;;;;;;;1.08;0.73;;;;;;;16.85;65.41;99277.78;20198528;29;20045;-83
2023/01/14 13:11:24;;;;;;;1.25;0.50;;;;;;;16.79;65.46;99239.84;20235624;29;20514;-82
2023/01/14 13:21:57;;;;;;;0.68;0.40;;;;;;;16.85;65.45;99200.69;20208722;29;20056;-83
2023/01/14 13:32:00;;;;;;;1.23;0.50;;;;;;;16.86;65.62;99197.00;20192498;29;20048;-83
2023/01/14 13:42:14;;;;;;;1.25;0.50;;;;;;;16.87;65.46;99174.47;20222673;29;20059;-83
2023/01/14 13:52:25;;;;;;;0.77;0.50;;;;;;;16.77;65.62;99153.16;20203301;29;20501;-82
2023/01/14 14:02:54;;;;;;;1.70;0.63;;;;;;;16.88;65.75;99138.53;20234490;29;20056;-82
2023/01/14 14:23:44;;;;;;;0.98;0.60;;;;;;;16.86;65.76;99100.25;20203628;29;20056;-82
2023/01/14 14:33:59;;;;;;;0.40;0.30;;;;;;;16.61;65.70;99059.19;20202081;29;20040;-90
2023/01/14 14:44:06;;;;;;;1.10;0.40;;;;;;;16.80;65.69;99069.50;20202470;29;20197;-85
2023/01/14 14:54:23;;;;;;;1.02;0.50;;;;;;;16.76;65.92;99070.88;20231919;29;20147;-87
2023/01/14 15:04:29;;;;;;;0.98;0.50;;;;;;;16.73;66.33;99062.31;20206741;29;20108;-84
2023/01/14 15:14:32;;;;;;;0.90;0.43;;;;;;;16.62;66.51;99034.81;20181929;29;20625;-85
2023/01/14 15:24:34;;;;;;;1.52;0.45;;;;;;;16.67;66.69;99031.63;20189208;29;20049;-88
2023/01/14 15:34:35;;;;;;;0.98;0.40;;;;;;;16.62;66.87;99024.06;20191999;29;20060;-87
2023/01/14 15:44:42;;;;;;;0.75;0.60;;;;;;;16.65;67.14;99017.53;20188452;29;20056;-88
2023/01/14 15:54:43;;;;;;;0.65;0.57;;;;;;;16.63;67.19;98998.06;20181469;29;20128;-85
2023/01/14 16:04:45;;;;;;;0.88;0.22;;;;;;;16.59;67.34;98976.06;20182575;29;20082;-88
2023/01/14 16:14:46;;;;;;;0.30;0.30;;;;;;;16.61;67.59;98984.78;20180060;29;20511;-86
2023/01/14 16:24:48;;;;;;;2.00;0.63;;;;;;;16.61;67.92;98968.66;20179817;29;20128;-86
2023/01/14 16:34:49;;;;;;;1.08;0.47;;;;;;;16.38;68.44;98929.16;20208488;29;20922;-84
2023/01/14 16:44:51;;;;;;;0.63;0.52;;;;;;;16.61;68.69;98940.97;20178082;29;20053;-85
2023/01/14 16:54:52;;;;;;;1.02;0.50;;;;;;;16.61;68.84;98943.66;20207238;29;20463;-86
2023/01/14 17:04:54;;;;;;;0.70;0.43;;;;;;;16.53;69.17;98909.59;20178594;29;20057;-85
2023/01/14 17:14:55;;;;;;;1.50;0.60;;;;;;;16.61;69.46;98922.16;20196416;29;20059;-84
2023/01/14 17:24:57;;;;;;;0.93;0.60;;;;;;;16.02;69.62;98827.63;20194777;29;20052;-85
2023/01/14 17:35:00;;;;;;;1.10;0.50;;;;;;;16.30;70.23;98866.59;20193395;29;20508;-85
2023/01/14 17:45:02;;;;;;;1.17;0.60;;;;;;;16.61;70.44;98909.56;20220634;29;20056;-86
2023/01/14 17:55:04;;;;;;;0.80;0.50;;;;;;;16.61;70.48;98908.75;20197680;29;20059;-85
2023/01/14 18:05:08;;;;;;;1.77;0.77;;;;;;;16.61;70.75;98916.78;20233608;29;20076;-85
2023/01/14 18:15:09;;;;;;;1.13;0.50;;;;;;;16.60;70.84;98913.25;20211704;29;20120;-84
2023/01/14 18:25:11;;;;;;;0.80;0.40;;;;;;;16.11;71.06;98832.94;20239681;29;20614;-83
2023/01/14 18:35:12;;;;;;;1.42;0.60;;;;;;;16.59;71.31;98892.78;20214672;29;20083;-84
2023/01/14 18:45:14;;;;;;;1.08;0.55;;;;;;;16.34;71.35;98884.84;20201255;29;20052;-86
2023/01/14 18:55:17;;;;;;;1.48;0.47;;;;;;;16.58;71.52;98917.97;20211366;29;20056;-87
2023/01/14 19:05:19;;;;;;;1.40;0.75;;;;;;;16.40;71.44;98922.78;20210435;29;20059;-87
2023/01/14 19:15:21;;;;;;;1.13;0.40;;;;;;;16.59;71.59;98943.81;20228432;29;20053;-86
2023/01/14 19:25:22;;;;;;;0.77;0.40;;;;;;;16.59;71.84;98922.34;20235715;29;20459;-87
2023/01/14 19:35:24;;;;;;;1.02;0.40;;;;;;;16.58;71.67;98947.53;20235421;29;20563;-86
2023/01/14 19:45:25;;;;;;;1.10;0.40;;;;;;;16.52;71.79;99024.25;20218932;29;20056;-87
2023/01/14 19:55:30;;;;;;;0.67;0.40;;;;;;;16.47;71.69;99095.66;20218143;29;20467;-88
2023/01/14 20:05:31;;;;;;;2.70;0.55;;;;;;;16.57;71.55;99139.28;20241920;29;20060;-87
2023/01/14 20:15:33;;;;;;;0.70;0.35;;;;;;;16.50;71.28;99170.50;20233031;29;20052;-87
2023/01/14 20:25:35;;;;;;;2.08;0.50;;;;;;;16.57;71.29;99184.09;20232036;29;20128;-87
2023/01/14 20:35:36;;;;;;;0.98;0.50;;;;;;;16.56;70.82;99201.22;20230795;29;20132;-87
2023/01/14 20:45:38;;;;;;;1.05;0.50;;;;;;;16.55;70.71;99207.59;20248037;29;20147;-87
2023/01/14 20:55:41;;;;;;;1.52;0.47;;;;;;;16.54;70.61;99196.03;20229897;29;20131;-87
2023/01/14 21:05:43;;;;;;;0.73;0.30;;;;;;;16.53;70.49;99210.47;20228963;29;20052;-88
2023/01/14 21:26:04;;;;;;;1.73;0.70;;;;;;;16.52;69.98;99227.59;20241761;29;20060;-87
2023/01/14 21:36:09;;;;;;;0.52;0.22;;;;;;;16.52;69.84;99206.94;20243349;29;20464;-87
2023/01/14 21:46:11;;;;;;;1.47;0.50;;;;;;;16.51;69.87;99207.13;20226394;29;20126;-87
2023/01/14 21:56:12;;;;;;;1.83;0.73;;;;;;;16.49;69.80;99212.63;20242801;29;20060;-87
2023/01/14 22:06:14;;;;;;;1.42;0.40;;;;;;;16.17;69.47;99157.94;20224100;29;20134;-87
2023/01/14 22:16:16;;;;;;;1.45;0.63;;;;;;;16.50;69.38;99208.13;20240404;29;20052;-87
2023/01/14 22:26:17;;;;;;;1.95;0.70;;;;;;;16.50;69.21;99192.00;20223100;29;20443;-87
2023/01/14 22:36:19;;;;;;;1.52;0.47;;;;;;;16.48;68.99;99194.84;20221586;29;20048;-87
2023/01/14 22:46:20;;;;;;;1.17;0.40;;;;;;;16.48;68.84;99215.50;20221769;29;20711;-88
2023/01/14 22:56:24;;;;;;;1.90;0.60;;;;;;;16.47;68.54;99214.66;20238223;29;20577;-88
2023/01/14 23:06:28;;;;;;;2.17;0.52;;;;;;;16.48;68.42;99210.13;20219751;29;20108;-87
2023/01/14 23:26:54;;;;;;;2.17;0.73;;;;;;;16.11;67.88;99133.59;20222347;29;20136;-88
2023/01/14 23:36:55;;;;;;;1.15;0.32;;;;;;;16.26;68.04;99169.50;20238138;29;20052;-87
2023/01/14 23:46:59;;;;;;;2.08;0.52;;;;;;;16.39;67.67;99182.44;20234353;29;20056;-87
2023/01/14 23:57:01;;;;;;;2.03;0.50;;;;;;;16.44;67.46;99203.44;20250257;29;20044;-87
